Time;durP1;ratioP1;P1;durP2;ratioP2;P2;SDS_P1;SDS_P2;PMS_P1;PMS_P2;Temp;Humidity;BMP_temperature;BMP_pressure;BME280_temperature;BME280_humidity;BME280_pressure;Samples;Min_cycle;Max_cycle;Signal;HPM_P1;HPM_P2
2023/03/25 00:02:19;;;;;;;57.97;3.10;;;;;;;;;;5061223;28;20456;-69
2023/03/25 00:04:49;;;;;;;58.40;3.30;;;;;;;;;;5061427;28;20805;-69
2023/03/25 00:07:18;;;;;;;58.87;3.40;;;;;;;;;;5060860;28;20699;-69
2023/03/25 00:09:45;;;;;;;58.60;3.30;;;9.40;1.00;;;;;;5059964;28;20482;-70
2023/03/25 00:12:12;;;;;;;62.00;3.60;;;9.50;1.00;;;;;;5058393;28;20460;-69
2023/03/25 00:14:39;;;;;;;58.13;3.50;;;9.20;1.00;;;;;;5058661;28;20813;-70
2023/03/25 00:17:06;;;;;;;58.87;2.97;;;9.10;1.00;;;;;;5060556;28;20472;-68
2023/03/25 00:19:35;;;;;;;57.60;3.03;;;;;;;;;;5061190;28;20460;-69
2023/03/25 00:22:02;;;;;;;58.30;3.20;;;;;;;;;;5061266;28;20456;-69
2023/03/25 00:24:30;;;;;;;59.73;3.57;;;;;;;;;;5063442;28;20444;-69
2023/03/25 00:26:57;;;;;;;58.13;2.90;;;;;;;;;;5064953;28;20479;-69
2023/03/25 00:29:25;;;;;;;58.37;2.90;;;9.00;1.00;;;;;;5065835;28;20462;-69
2023/03/25 00:31:52;;;;;;;57.50;2.87;;;;;;;;;;5065593;28;20453;-69
2023/03/25 00:34:19;;;;;;;59.20;2.70;;;9.00;1.00;;;;;;5064482;28;20448;-69
2023/03/25 00:36:46;;;;;;;56.90;2.50;;;;;;;;;;5064595;28;20476;-70
2023/03/25 00:39:13;;;;;;;57.70;3.17;;;;;;;;;;5065901;28;20453;-69
2023/03/25 00:41:42;;;;;;;59.77;2.83;;;;;;;;;;5066700;28;20894;-70
2023/03/25 00:44:13;;;;;;;57.03;2.63;;;9.00;1.00;;;;;;5067328;28;20448;-70
2023/03/25 00:46:40;;;;;;;57.10;2.73;;;9.00;1.00;;;;;;5047943;28;20477;-71
2023/03/25 00:49:07;;;;;;;57.40;2.90;;;9.00;1.00;;;;;;5046259;28;20880;-71
2023/03/25 00:51:34;;;;;;;57.70;2.90;;;9.00;1.00;;;;;;5047221;28;20520;-71
2023/03/25 00:54:02;;;;;;;59.67;3.00;;;9.00;1.00;;;;;;5049252;28;20539;-71
2023/03/25 00:56:30;;;;;;;57.30;2.70;;;9.00;1.00;;;;;;5048118;28;20441;-71
2023/03/25 00:58:58;;;;;;;57.20;2.50;;;9.00;1.00;;;;;;5047237;28;20456;-72
2023/03/25 01:01:27;;;;;;;57.37;2.90;;;9.00;1.00;;;;;;5047881;28;20481;-72
2023/03/25 01:03:57;;;;;;;58.17;2.70;;;9.00;1.00;;;;;;5049540;28;20456;-72
2023/03/25 01:06:28;;;;;;;57.47;3.00;;;9.00;1.00;;;;;;5048869;28;20530;-72
2023/03/25 01:08:57;;;;;;;57.77;3.00;;;9.00;1.00;;;;;;5048294;28;20452;-73
2023/03/25 01:11:27;;;;;;;58.00;2.87;;;9.00;1.00;;;;;;5047659;28;20477;-72
2023/03/25 01:13:55;;;;;;;57.17;2.53;;;9.00;1.00;;;;;;5047285;28;20564;-73
2023/03/25 01:16:23;;;;;;;57.10;2.80;;;9.00;1.00;;;;;;5045432;28;20453;-73
2023/03/25 01:18:50;;;;;;;58.13;2.60;;;9.00;1.00;;;;;;5045135;28;20488;-73
2023/03/25 01:21:17;;;;;;;58.10;2.90;;;9.00;1.00;;;;;;5043463;28;20445;-73
2023/03/25 01:23:44;;;;;;;58.47;2.90;;;9.00;1.00;;;;;;5043723;28;20968;-73
2023/03/25 01:26:12;;;;;;;56.90;2.63;;;9.00;1.00;;;;;;5042671;28;20453;-74
2023/03/25 01:28:39;;;;;;;58.57;2.80;;;9.00;1.00;;;;;;5041862;28;20841;-73
2023/03/25 01:31:08;;;;;;;57.90;2.67;;;9.00;1.00;;;;;;5042375;28;21064;-73
2023/03/25 01:33:36;;;;;;;58.20;3.30;;;8.90;1.00;;;;;;5041769;28;20811;-73
2023/03/25 01:36:03;;;;;;;57.10;2.67;;;8.90;1.00;;;;;;5040644;28;20544;-73
2023/03/25 01:38:30;;;;;;;59.27;3.43;;;8.90;1.00;;;;;;5038325;28;20541;-73
2023/03/25 01:40:57;;;;;;;58.93;3.50;;;8.90;1.00;;;;;;5038782;28;20540;-74
2023/03/25 01:43:24;;;;;;;58.80;3.10;;;8.90;1.00;;;;;;5037309;28;20536;-74
2023/03/25 01:45:51;;;;;;;61.80;3.33;;;8.90;1.00;;;;;;5036655;28;20475;-74
2023/03/25 01:48:24;;;;;;;63.67;3.43;;;8.90;1.00;;;;;;5036056;28;20477;-74
2023/03/25 01:50:58;;;;;;;57.93;3.10;;;8.90;1.00;;;;;;5036301;28;20485;-74
2023/03/25 01:53:27;;;;;;;57.93;3.00;;;8.90;1.00;;;;;;5036304;28;20520;-74
2023/03/25 01:55:55;;;;;;;58.87;3.50;;;8.90;1.00;;;;;;5036580;28;20480;-74
2023/03/25 01:58:25;;;;;;;58.03;2.90;;;8.90;1.00;;;;;;5036464;28;20503;-74
2023/03/25 02:00:53;;;;;;;58.03;3.10;;;9.00;1.00;;;;;;5035994;28;20579;-74
2023/03/25 02:03:21;;;;;;;58.07;2.90;;;;;;;;;;5035665;28;20461;-74
2023/03/25 02:05:55;;;;;;;59.40;3.30;;;8.90;1.00;;;;;;5035894;28;20464;-74
2023/03/25 02:08:23;;;;;;;59.03;3.30;;;;;;;;;;5036282;28;20477;-74
2023/03/25 02:10:51;;;;;;;58.57;2.97;;;;;;;;;;5035739;28;20495;-73
2023/03/25 02:13:18;;;;;;;58.30;3.00;;;;;;;;;;5035883;28;20449;-74
2023/03/25 02:15:52;;;;;;;58.27;3.37;;;;;;;;;;5035391;28;20453;-74
2023/03/25 02:18:25;;;;;;;59.47;3.00;;;;;;;;;;5035527;28;20836;-73
2023/03/25 02:21:11;;;;;;;59.07;3.33;;;;;;;;;;5035926;28;20449;-73
2023/03/25 02:23:57;;;;;;;58.57;2.90;;;;;;;;;;5035349;28;20464;-73
2023/03/25 02:26:41;;;;;;;57.87;3.13;;;;;;;;;;5035754;28;20456;-74
2023/03/25 02:29:12;;;;;;;57.53;2.80;;;;;;;;;;5033379;28;20456;-73
2023/03/25 02:31:54;;;;;;;59.23;3.00;;;;;;;;;;5035882;28;20481;-73
2023/03/25 02:34:55;;;;;;;59.50;2.73;;;8.90;1.00;;;;;;5034581;28;20942;-73
2023/03/25 02:37:57;;;;;;;57.47;2.60;;;9.00;1.00;;;;;;5035231;28;20519;-73
2023/03/25 02:40:27;;;;;;;60.03;3.33;;;9.00;1.00;;;;;;5035826;28;20437;-74
2023/03/25 02:42:58;;;;;;;57.67;2.90;;;;;;;;;;5035255;28;20459;-73
2023/03/25 02:45:28;;;;;;;61.87;2.87;;;;;;;;;;5035978;28;20449;-73
2023/03/25 02:47:58;;;;;;;58.00;2.80;;;;;;;;;;5037230;28;20465;-73
2023/03/25 02:50:26;;;;;;;57.27;2.93;;;;;;;;;;5038143;28;20449;-73
2023/03/25 02:52:56;;;;;;;60.57;3.10;;;;;;;;;;5040751;28;20463;-72
2023/03/25 02:55:25;;;;;;;58.40;3.30;;;;;;;;;;5039544;28;20449;-72
2023/03/25 02:57:56;;;;;;;58.03;2.97;;;8.80;1.00;;;;;;5036544;28;20535;-72
2023/03/25 03:00:27;;;;;;;58.77;2.83;;;8.40;1.00;;;;;;5032002;28;20467;-73
2023/03/25 03:02:58;;;;;;;57.63;2.90;;;7.70;1.00;;;;;;5031609;28;20931;-73
2023/03/25 03:05:27;;;;;;;57.97;2.80;;;7.40;1.00;;;;;;5031790;28;20453;-75
2023/03/25 03:08:03;;;;;;;57.90;3.03;;;;;;;;;;5031799;28;20465;-74
2023/03/25 03:10:33;;;;;;;60.13;3.22;;;;;;;;;;5031617;28;20448;-74
2023/03/25 03:13:07;;;;;;;64.43;4.35;;;;;;;;;;5031469;28;20214;-73
2023/03/25 03:15:38;;;;;;;57.92;3.13;;;;;;;;;;5031510;28;20214;-73
2023/03/25 03:18:09;;;;;;;57.40;2.70;;;;;;;;;;5031349;28;20239;-74
2023/03/25 03:20:39;;;;;;;57.57;3.10;;;;;;;;;;5031435;28;20210;-74
2023/03/25 03:23:10;;;;;;;57.08;3.00;;;;;;;;;;5031856;28;20548;-74
2023/03/25 03:25:38;;;;;;;62.20;3.10;;;;;;;;;;5032611;28;20237;-73
2023/03/25 03:28:08;;;;;;;58.43;2.70;;;;;;;;;;5031773;28;20487;-73
2023/03/25 03:30:38;;;;;;;56.57;2.80;;;;;;;;;;5031755;28;20449;-73
2023/03/25 03:33:12;;;;;;;58.57;2.77;;;;;;;;;;5032087;28;20965;-73
2023/03/25 03:35:42;;;;;;;56.70;2.70;;;;;;;;;;5031848;28;20984;-73
2023/03/25 03:38:12;;;;;;;58.20;3.10;;;;;;;;;;5031535;28;20472;-73
2023/03/25 03:40:40;;;;;;;56.87;2.83;;;;;;;;;;5031193;28;20452;-73
2023/03/25 03:43:09;;;;;;;57.73;2.90;;;;;;;;;;5031739;28;20441;-73
2023/03/25 03:45:40;;;;;;;57.90;2.73;;;;;;;;;;5032705;28;20469;-74
2023/03/25 03:48:09;;;;;;;56.57;2.83;;;;;;;;;;5034833;28;20473;-74
2023/03/25 03:50:40;;;;;;;58.07;4.00;;;;;;;;;;5034729;28;20870;-74
2023/03/25 03:53:09;;;;;;;61.53;7.40;;;;;;;;;;5034987;28;20968;-74
2023/03/25 03:55:41;;;;;;;65.57;10.15;;;;;;;;;;5035284;28;20483;-74
2023/03/25 03:58:10;;;;;;;59.40;5.25;;;;;;;;;;5035097;28;20249;-74
2023/03/25 04:00:40;;;;;;;60.30;5.30;;;;;;;;;;5034718;28;20679;-74
2023/03/25 04:03:13;;;;;;;60.93;4.53;;;;;;;;;;5035027;28;20456;-74
2023/03/25 04:05:41;;;;;;;57.25;3.00;;;;;;;;;;5034858;28;20448;-74
2023/03/25 04:08:12;;;;;;;58.50;2.90;;;;;;;;;;5034917;28;20226;-74
2023/03/25 04:10:44;;;;;;;57.25;3.13;;;;;;;;;;5035529;28;20567;-74
2023/03/25 04:13:13;;;;;;;57.43;3.10;;;;;;;;;;5037238;28;20210;-73
2023/03/25 04:15:40;;;;;;;57.30;3.33;;;;;;;;;;5037636;28;20495;-74
2023/03/25 04:18:07;;;;;;;58.20;3.03;;;;;;;;;;5038127;28;20477;-74
2023/03/25 04:20:35;;;;;;;56.87;2.60;;;;;;;;;;5038573;28;20679;-74
2023/03/25 04:23:03;;;;;;;57.28;2.80;;;;;;;;;;5039347;28;20812;-74
2023/03/25 04:25:31;;;;;;;56.67;2.80;;;;;;;;;;5039515;28;20207;-74
2023/03/25 04:27:59;;;;;;;62.53;2.80;;;;;;;;;;5038003;28;20530;-74
2023/03/25 04:30:27;;;;;;;57.60;2.70;;;;;;;;;;5038352;28;20445;-74
2023/03/25 04:32:54;;;;;;;58.50;2.90;;;;;;;;;;5037813;28;20453;-74
2023/03/25 04:35:21;;;;;;;59.88;2.88;;;;;;;;;;5036960;28;20453;-74
2023/03/25 04:37:48;;;;;;;58.27;2.70;;;;;;;;;;5055991;28;20224;-74
2023/03/25 04:40:17;;;;;;;58.17;2.88;;;;;;;;;;5056312;28;20563;-74
2023/03/25 04:42:45;;;;;;;58.03;2.57;;;;;;;;;;5056048;28;20373;-74
2023/03/25 04:45:15;;;;;;;57.30;3.10;;;;;;;;;;5056365;28;20524;-74
2023/03/25 04:47:43;;;;;;;57.13;2.90;;;;;;;;;;5057185;28;20474;-74
2023/03/25 04:50:16;;;;;;;57.75;2.78;;;;;;;;;;5056840;28;20514;-74
2023/03/25 04:52:43;;;;;;;57.37;3.10;;;;;;;;;;5057651;28;20670;-74
2023/03/25 04:55:16;;;;;;;58.40;2.90;;;;;;;;;;5056530;28;20539;-75
2023/03/25 04:57:43;;;;;;;57.80;2.70;;;;;;;;;;5055707;28;20814;-74
2023/03/25 05:00:12;;;;;;;58.72;3.55;;;;;;;;;;5056572;28;20455;-74
2023/03/25 05:02:45;;;;;;;57.37;2.73;;;;;;;;;;5056175;28;20261;-75
2023/03/25 05:05:17;;;;;;;57.30;2.67;;;;;;;;;;5056525;28;20502;-75
2023/03/25 05:07:46;;;;;;;57.50;3.27;;;;;;;;;;5056293;28;20477;-75
2023/03/25 05:10:13;;;;;;;58.53;2.80;;;;;;;;;;5055177;28;20499;-75
2023/03/25 05:12:40;;;;;;;58.27;3.07;;;;;;;;;;5056135;28;20444;-75
2023/03/25 05:15:08;;;;;;;57.17;3.10;;;;;;;;;;5056174;28;20456;-75
2023/03/25 05:17:35;;;;;;;57.57;2.80;;;;;;;;;;5055451;28;20478;-75
2023/03/25 05:20:06;;;;;;;57.80;2.80;;;;;;;;;;5054856;28;20834;-75
2023/03/25 05:22:33;;;;;;;59.80;3.30;;;;;;;;;;5055532;28;20272;-75
2023/03/25 05:25:03;;;;;;;58.17;2.92;;;;;;;;;;5054963;28;20218;-75
2023/03/25 05:27:32;;;;;;;57.93;3.03;;;;;;;;;;5054775;28;20230;-75
2023/03/25 05:30:00;;;;;;;59.90;3.53;;;;;;;;;;5054461;28;20467;-75
2023/03/25 05:32:28;;;;;;;58.23;3.20;;;;;;;;;;5054704;28;20456;-75
2023/03/25 05:34:55;;;;;;;58.87;3.00;;;;;;;;;;5054388;28;20506;-75
2023/03/25 05:37:24;;;;;;;57.70;3.23;;;;;;;;;;5054288;28;20483;-75
2023/03/25 05:39:51;;;;;;;57.07;2.60;;;;;;;;;;5054774;28;20821;-75
2023/03/25 05:42:21;;;;;;;59.17;2.80;;;;;;;;;;5054749;28;20566;-75
2023/03/25 05:44:50;;;;;;;59.00;3.10;;;;;;;;;;5054470;28;20467;-75
2023/03/25 05:47:19;;;;;;;57.17;2.77;;;;;;;;;;5054325;28;20483;-76
2023/03/25 05:49:46;;;;;;;58.67;3.07;;;;;;;;;;5053354;28;20543;-75
2023/03/25 05:52:13;;;;;;;59.50;3.30;;;;;;;;;;5053888;28;20465;-75
2023/03/25 05:54:41;;;;;;;58.37;2.90;;;;;;;;;;5053308;28;20437;-75
2023/03/25 05:57:09;;;;;;;59.87;3.27;;;;;;;;;;5053240;28;20474;-75
2023/03/25 05:59:37;;;;;;;58.10;2.87;;;;;;;;;;5052645;28;20960;-75
2023/03/25 06:02:06;;;;;;;58.30;3.17;;;;;;;;;;5052960;28;20480;-75
2023/03/25 06:04:36;;;;;;;57.33;2.87;;;;;;;;;;5052837;28;20829;-75
2023/03/25 06:07:03;;;;;;;60.07;3.10;;;;;;;;;;5053034;28;20472;-75
2023/03/25 06:09:33;;;;;;;57.93;2.90;;;;;;;;;;5051406;28;20452;-75
2023/03/25 06:12:02;;;;;;;62.53;2.97;;;;;;;;;;5052736;28;20456;-76
2023/03/25 06:14:29;;;;;;;59.40;2.90;;;;;;;;;;5052410;28;20506;-75
2023/03/25 06:16:56;;;;;;;60.90;3.00;;;;;;;;;;5052035;28;20475;-75
2023/03/25 06:19:25;;;;;;;59.60;3.30;;;;;;;;;;5052225;28;20450;-75
2023/03/25 06:21:53;;;;;;;60.40;3.03;;;;;;;;;;5052380;28;20506;-75
2023/03/25 06:24:21;;;;;;;58.20;3.13;;;;;;;;;;5052404;28;20453;-75
2023/03/25 06:26:48;;;;;;;58.37;3.07;;;;;;;;;;5052066;28;20868;-75
2023/03/25 06:29:16;;;;;;;60.77;3.30;;;;;;;;;;5051864;28;20501;-75
2023/03/25 06:31:43;;;;;;;58.60;2.83;;;;;;;;;;5051940;28;20448;-75
2023/03/25 06:34:10;;;;;;;59.77;3.50;;;;;;;;;;5052119;28;20455;-75
2023/03/25 06:36:37;;;;;;;58.20;3.47;;;;;;;;;;5052114;28;20478;-75
2023/03/25 06:39:05;;;;;;;57.67;3.20;;;;;;;;;;5051963;28;20752;-75
2023/03/25 06:41:34;;;;;;;59.67;3.00;;;;;;;;;;5052106;28;20820;-75
2023/03/25 06:44:02;;;;;;;57.83;2.70;;;;;;;;;;5051692;28;20452;-75
2023/03/25 06:46:30;;;;;;;59.70;2.93;;;;;;;;;;5051662;28;20460;-75
2023/03/25 06:48:57;;;;;;;58.20;2.60;;;;;;;;;;5051587;28;20444;-75
2023/03/25 06:51:24;;;;;;;62.30;3.10;;;;;;;;;;5052173;28;20828;-75
2023/03/25 06:53:52;;;;;;;59.27;3.10;;;;;;;;;;5051831;28;20452;-75
2023/03/25 06:56:19;;;;;;;58.63;2.80;;;;;;;;;;5051568;28;20452;-75
2023/03/25 06:58:46;;;;;;;62.20;2.80;;;;;;;;;;5051326;28;20532;-75
2023/03/25 07:01:13;;;;;;;59.40;3.37;;;;;;;;;;5051638;28;20967;-74
2023/03/25 07:03:42;;;;;;;58.10;3.10;;;;;;;;;;5051938;28;20484;-75
2023/03/25 07:06:11;;;;;;;58.50;2.80;;;;;;;;;;5051692;28;20448;-74
2023/03/25 07:08:38;;;;;;;58.87;3.20;;;;;;;;;;5051265;28;20468;-74
2023/03/25 07:11:06;;;;;;;59.80;3.07;;;;;;;;;;5051549;28;20459;-75
2023/03/25 07:13:33;;;;;;;59.50;3.50;;;;;;;;;;5051682;28;20452;-74
2023/03/25 07:16:01;;;;;;;60.27;2.90;;;;;;;;;;5051841;28;20455;-75
2023/03/25 07:18:28;;;;;;;58.10;2.70;;;;;;;;;;5051251;28;20480;-74
2023/03/25 07:20:57;;;;;;;58.97;3.33;;;;;;;;;;5054089;28;20452;-74
2023/03/25 07:23:24;;;;;;;57.77;3.00;;;;;;;;;;5055486;28;20483;-75
2023/03/25 07:25:51;;;;;;;60.43;3.07;;;;;;;;;;5055390;28;20444;-74
2023/03/25 07:28:18;;;;;;;58.47;3.00;;;;;;;;;;5055510;28;20475;-75
2023/03/25 07:30:46;;;;;;;60.00;2.83;;;;;;;;;;5055286;28;20553;-75
2023/03/25 07:33:13;;;;;;;59.37;3.20;;;;;;;;;;5055479;28;20444;-75
2023/03/25 07:35:40;;;;;;;59.70;3.27;;;;;;;;;;5055461;28;20952;-75
2023/03/25 07:38:09;;;;;;;61.33;2.73;;;;;;;;;;5055249;28;20465;-75
2023/03/25 07:40:36;;;;;;;58.67;2.83;;;;;;;;;;5055569;28;20456;-74
2023/03/25 07:43:03;;;;;;;58.87;3.00;;;;;;;;;;5055628;28;20579;-74
2023/03/25 07:45:30;;;;;;;63.93;3.17;;;;;;;;;;5055780;28;20717;-74
2023/03/25 07:47:57;;;;;;;66.97;3.10;;;;;;;;;;5055710;28;20472;-74
2023/03/25 07:50:25;;;;;;;62.33;3.10;;;;;;;;;;5055188;28;20448;-74
2023/03/25 07:53:13;;;;;;;58.47;2.57;;;;;;;;;;5055442;28;20444;-74
2023/03/25 07:55:41;;;;;;;59.87;3.17;;;;;;;;;;5049036;28;20463;-76
2023/03/25 07:58:08;;;;;;;59.07;2.70;;;;;;;;;;5055360;28;20506;-76
2023/03/25 08:00:36;;;;;;;58.60;3.03;;;;;;;;;;5054972;28;20455;-75
2023/03/25 08:03:03;;;;;;;58.20;2.77;;;;;;;;;;5055162;28;20487;-74
2023/03/25 08:05:30;;;;;;;60.87;2.33;;;;;;;;;;5054541;28;20458;-74
2023/03/25 08:07:58;;;;;;;58.30;2.87;;;;;;;;;;5054336;28;20464;-75
2023/03/25 08:10:26;;;;;;;59.00;2.70;;;;;;;;;;5054350;28;20810;-74
2023/03/25 08:12:54;;;;;;;57.87;2.40;;;;;;;;;;5054345;28;20445;-75
2023/03/25 08:15:23;;;;;;;59.30;2.80;;;;;;;;;;5054395;28;20460;-74
2023/03/25 08:17:51;;;;;;;58.47;2.67;;;;;;;;;;5054093;28;20471;-75
2023/03/25 08:20:19;;;;;;;58.20;2.67;;;;;;;;;;5053892;28;20452;-75
2023/03/25 08:22:46;;;;;;;58.33;3.07;;;;;;;;;;5054288;28;21097;-75
2023/03/25 08:25:14;;;;;;;57.40;2.30;;;;;;;;;;5054236;28;20448;-75
2023/03/25 08:27:42;;;;;;;58.83;2.83;;;;;;;;;;5054077;28;20844;-75
2023/03/25 08:30:11;;;;;;;58.10;2.60;;;;;;;;;;5053740;28;20455;-74
2023/03/25 08:32:39;;;;;;;58.33;2.80;;;;;;;;;;5053157;28;20498;-75
2023/03/25 08:35:06;;;;;;;57.80;2.50;;;;;;;;;;5054194;28;20456;-74
2023/03/25 08:37:36;;;;;;;57.47;2.83;;;;;;;;;;5054340;28;20476;-74
2023/03/25 08:40:06;;;;;;;58.37;2.67;;;;;;;;;;5053693;28;20448;-74
2023/03/25 08:42:33;;;;;;;58.87;2.77;;;;;;;;;;5053919;28;20484;-75
2023/03/25 08:45:00;;;;;;;59.10;2.63;;;;;;;;;;5053625;28;20466;-75
2023/03/25 08:47:29;;;;;;;60.73;3.70;;;;;;;;;;5053893;28;20571;-72
2023/03/25 08:49:56;;;;;;;61.37;3.40;;;;;;;;;;5053538;28;20453;-74
2023/03/25 08:52:23;;;;;;;57.43;2.57;;;;;;;;;;5053750;28;20945;-75
2023/03/25 08:54:50;;;;;;;61.10;2.80;;;;;;;;;;5053599;28;20635;-75
2023/03/25 08:57:17;;;;;;;57.17;2.27;;;;;;;;;;5053405;28;20512;-74
2023/03/25 08:59:45;;;;;;;58.60;2.30;;;;;;;;;;5053449;28;20448;-75
2023/03/25 09:02:12;;;;;;;58.00;2.37;;;;;;;;;;5053351;28;20454;-75
2023/03/25 09:04:41;;;;;;;58.70;2.63;;;;;;;;;;5053323;28;20452;-75
2023/03/25 09:07:09;;;;;;;56.67;2.00;;;;;;;;;;5053256;28;21052;-75
2023/03/25 09:09:36;;;;;;;58.20;2.40;;;;;;;;;;5052934;28;20454;-72
2023/03/25 09:12:03;;;;;;;57.07;2.20;;;;;;;;;;5053164;28;20452;-72
2023/03/25 09:14:31;;;;;;;57.80;2.30;;;;;;;;;;5053335;28;20837;-74
2023/03/25 09:16:58;;;;;;;57.70;2.40;;;;;;;;;;5053274;28;20469;-72
2023/03/25 09:19:25;;;;;;;57.60;2.70;;;;;;;;;;5052827;28;20448;-71
2023/03/25 09:21:53;;;;;;;57.33;2.60;;;;;;;;;;5053167;28;20462;-71
2023/03/25 09:24:21;;;;;;;57.97;2.83;;;;;;;;;;5052865;28;20506;-71
2023/03/25 09:26:48;;;;;;;57.27;2.60;;;;;;;;;;5053243;28;20468;-72
2023/03/25 09:29:15;;;;;;;57.40;2.43;;;;;;;;;;5052782;28;20448;-73
2023/03/25 09:31:42;;;;;;;57.30;2.30;;;;;;;;;;5052915;28;20452;-72
2023/03/25 09:34:10;;;;;;;58.60;2.70;;;;;;;;;;5052761;28;20979;-73
2023/03/25 09:36:37;;;;;;;59.13;2.53;;;;;;;;;;5052739;28;20479;-72
2023/03/25 09:39:07;;;;;;;57.40;2.40;;;;;;;;;;5052450;28;20453;-73
2023/03/25 09:41:51;;;;;;;57.67;2.50;;;;;;;;;;5052848;28;20448;-74
2023/03/25 09:44:22;;;;;;;57.20;2.77;;;;;;;;;;5052584;28;20484;-74
2023/03/25 09:46:49;;;;;;;57.37;2.53;;;;;;;;;;5052671;28;20836;-74
2023/03/25 09:49:19;;;;;;;57.80;2.50;;;;;;;;;;5052307;28;20444;-74
2023/03/25 09:51:47;;;;;;;61.77;3.10;;;;;;;;;;5052651;28;20485;-74
2023/03/25 09:54:19;;;;;;;58.77;2.43;;;;;;;;;;5052473;28;20955;-74
2023/03/25 09:56:46;;;;;;;57.60;2.73;;;;;;;;;;5052554;28;20468;-75
2023/03/25 09:59:16;;;;;;;58.67;2.27;;;;;;;;;;5052182;28;20448;-72
2023/03/25 10:01:45;;;;;;;57.27;2.47;;;;;;;;;;5052244;28;20555;-74
2023/03/25 10:04:25;;;;;;;56.77;2.20;;;;;;;;;;5052089;28;20490;-74
2023/03/25 10:06:57;;;;;;;58.37;2.73;;;;;;;;;;5052237;28;20468;-74
2023/03/25 10:09:32;;;;;;;59.73;2.77;;;;;;;;;;5051990;28;20466;-74
2023/03/25 10:12:02;;;;;;;56.57;2.10;;;;;;;;;;5052110;28;20448;-74
2023/03/25 10:14:33;;;;;;;59.73;2.73;;;;;;;;;;5052053;28;20440;-75
2023/03/25 10:17:07;;;;;;;59.20;2.33;;;;;;;;;;5051922;28;20476;-73
2023/03/25 10:19:49;;;;;;;58.80;2.90;;;;;;;;;;5051688;28;20937;-74
2023/03/25 10:22:18;;;;;;;57.40;2.60;;;;;;;;;;5052091;28;20993;-73
2023/03/25 10:24:48;;;;;;;59.10;2.70;;;;;;;;;;5049403;28;20860;-68
2023/03/25 10:27:19;;;;;;;58.27;2.60;;;;;;;;;;5051827;28;20589;-71
2023/03/25 10:29:50;;;;;;;61.20;2.50;;;;;;;;;;5051639;28;20454;-70
2023/03/25 10:32:18;;;;;;;58.87;2.90;;;;;;;;;;5051752;28;20517;-70
2023/03/25 10:34:49;;;;;;;58.67;2.83;;;;;;;;;;5051843;28;20440;-72
2023/03/25 10:37:17;;;;;;;59.70;2.70;;;;;;;;;;5051664;28;20464;-72
2023/03/25 10:39:46;;;;;;;58.57;2.60;;;;;;;;;;5051695;28;20459;-70
2023/03/25 10:42:20;;;;;;;57.80;2.43;;;;;;;;;;5052001;28;20453;-70
2023/03/25 10:44:48;;;;;;;57.80;2.50;;;;;;;;;;5051560;28;20486;-71
2023/03/25 10:47:18;;;;;;;58.10;2.67;;;;;;;;;;5051542;28;20995;-71
2023/03/25 10:49:45;;;;;;;58.57;2.50;;;;;;;;;;5050407;28;20455;-70
2023/03/25 10:52:13;;;;;;;57.70;2.53;;;;;;;;;;5050740;28;20930;-72
2023/03/25 10:54:42;;;;;;;58.93;2.50;;;;;;;;;;5052440;28;20451;-70
2023/03/25 10:57:10;;;;;;;57.30;2.30;;;;;;;;;;5058292;28;20840;-71
2023/03/25 10:59:42;;;;;;;57.70;2.40;;;;;;;;;;5058002;28;20456;-71
2023/03/25 11:02:13;;;;;;;57.70;2.33;;;;;;;;;;5058363;28;20456;-71
2023/03/25 11:04:43;;;;;;;57.50;2.30;;;;;;;;;;5057887;28;20483;-70
2023/03/25 11:07:16;;;;;;;57.07;2.50;;;;;;;;;;5058401;28;20487;-71
2023/03/25 11:09:43;;;;;;;57.13;2.27;;;;;;;;;;5057920;28;20536;-71
2023/03/25 11:12:10;;;;;;;57.47;2.20;;;;;;;;;;5058072;28;20940;-71
2023/03/25 11:14:40;;;;;;;58.03;2.63;;;;;;;;;;5058081;28;20828;-71
2023/03/25 11:17:11;;;;;;;57.90;2.20;;;;;;;;;;5057943;28;20472;-71
2023/03/25 11:19:41;;;;;;;57.80;2.43;;;;;;;;;;5057388;28;20484;-71
2023/03/25 11:22:09;;;;;;;57.17;2.30;;;;;;;;;;5057971;28;20451;-71
2023/03/25 11:24:41;;;;;;;57.63;2.73;;;;;;;;;;5057982;28;20919;-71
2023/03/25 11:27:09;;;;;;;57.47;2.40;;;;;;;;;;5057925;28;20470;-70
2023/03/25 11:29:37;;;;;;;57.17;2.33;;;;;;;;;;5057573;28;20448;-70
2023/03/25 11:32:13;;;;;;;57.07;2.27;;;;;;;;;;5058222;28;20444;-72
2023/03/25 11:34:41;;;;;;;57.37;2.37;;;;;;;;;;5057827;28;20480;-71
2023/03/25 11:37:16;;;;;;;57.20;2.40;;;;;;;;;;5057917;28;20459;-69
2023/03/25 11:39:43;;;;;;;57.50;2.30;;;;;;;;;;5057310;28;20969;-69
2023/03/25 11:42:13;;;;;;;59.20;2.50;;;;;;;;;;5057961;28;20447;-70
2023/03/25 11:44:40;;;;;;;57.70;2.10;;;;;;;;;;5057785;28;20475;-70
2023/03/25 11:47:10;;;;;;;58.67;2.50;;;;;;;;;;5057853;28;20467;-71
2023/03/25 11:49:40;;;;;;;57.20;2.50;;;;;;;;;;5057131;28;20458;-70
2023/03/25 11:52:07;;;;;;;57.60;2.60;;;;;;;;;;5057601;28;20451;-71
2023/03/25 11:54:36;;;;;;;58.17;2.50;;;;;;;;;;5057613;28;20873;-70
2023/03/25 11:57:04;;;;;;;57.87;2.53;;;;;;;;;;5056959;28;20558;-70
2023/03/25 11:59:36;;;;;;;57.77;2.57;;;;;;;;;;5057392;28;20451;-70
2023/03/25 12:02:14;;;;;;;57.73;2.50;;;;;;;;;;5057673;28;20444;-70
2023/03/25 12:04:54;;;;;;;60.83;2.70;;;;;;;;;;5056838;28;20890;-70
2023/03/25 12:07:23;;;;;;;58.50;2.37;;;;;;;;;;5055605;28;20566;-71
2023/03/25 12:09:54;;;;;;;59.20;2.40;;;;;;;;;;5054745;28;20506;-72
2023/03/25 12:12:35;;;;;;;58.63;2.60;;;;;;;;;;5054615;28;20454;-71
2023/03/25 12:15:06;;;;;;;58.13;2.90;;;;;;;;;;5054567;28;20455;-70
2023/03/25 12:17:41;;;;;;;58.07;2.67;;;;;;;;;;5055396;28;20468;-70
2023/03/25 12:20:14;;;;;;;59.47;2.60;;;;;;;;;;5055252;28;20459;-71
2023/03/25 12:22:46;;;;;;;57.17;2.30;;;;;;;;;;5054229;28;20546;-72
2023/03/25 12:25:17;;;;;;;57.70;2.50;;;;;;;;;;5054639;28;20488;-69
2023/03/25 12:27:51;;;;;;;57.40;2.50;;;;;;;;;;5053953;28;20511;-70
2023/03/25 12:30:25;;;;;;;57.10;2.33;;;;;;;;;;5053753;28;20460;-69
2023/03/25 12:32:56;;;;;;;57.33;2.57;;;;;;;;;;5053871;28;20450;-70
2023/03/25 12:35:29;;;;;;;57.70;2.30;;;;;;;;;;5054392;28;20448;-70
2023/03/25 12:38:12;;;;;;;57.93;2.30;;;;;;;;;;5054436;28;20872;-71
2023/03/25 12:40:44;;;;;;;57.60;2.33;;;;;;;;;;5053892;28;20546;-72
2023/03/25 12:43:12;;;;;;;57.50;2.27;;;;;;;;;;5054045;28;20456;-69
2023/03/25 12:45:49;;;;;;;57.30;2.40;;;;;;;;;;5053446;28;20467;-70
2023/03/25 12:48:24;;;;;;;58.20;2.70;;;;;;;;;;5053233;28;20472;-71
2023/03/25 12:50:55;;;;;;;58.97;2.43;;;;;;;;;;5053332;28;20933;-72
2023/03/25 12:53:39;;;;;;;59.30;2.30;;;;;;;;;;5053668;28;20461;-69
2023/03/25 12:56:14;;;;;;;58.40;2.30;;;;;;;;;;5053869;28;20453;-69
2023/03/25 12:58:56;;;;;;;58.47;2.70;;;;;;;;;;5052795;28;20484;-70
2023/03/25 13:01:27;;;;;;;57.70;2.50;;;;;;;;;;5053744;28;20452;-70
2023/03/25 13:03:59;;;;;;;57.90;2.23;;;;;;;;;;5053581;28;20506;-70
2023/03/25 13:06:30;;;;;;;57.30;2.60;;;;;;;;;;5053473;28;20510;-70
2023/03/25 13:08:59;;;;;;;56.67;2.10;;;;;;;;;;5053099;28;20464;-71
2023/03/25 13:11:29;;;;;;;59.10;2.40;;;;;;;;;;5053750;28;20898;-71
2023/03/25 13:13:59;;;;;;;57.20;2.30;;;;;;;;;;5053799;28;20448;-71
2023/03/25 13:16:29;;;;;;;57.20;2.20;;;;;;;;;;5053338;28;20452;-71
2023/03/25 13:19:01;;;;;;;57.20;2.33;;;;;;;;;;5052418;28;20527;-71
2023/03/25 13:21:30;;;;;;;57.47;2.27;;;;;;;;;;5053132;28;20445;-71
2023/03/25 13:23:59;;;;;;;57.60;2.40;;;;;;;;;;5052882;28;21011;-71
2023/03/25 13:26:28;;;;;;;57.73;2.50;;;;;;;;;;5052900;28;21028;-71
2023/03/25 13:28:58;;;;;;;57.70;2.40;;;;;;;;;;5052823;28;20448;-71
2023/03/25 13:31:27;;;;;;;57.40;2.50;;;;;;;;;;5053207;28;20868;-71
2023/03/25 13:33:57;;;;;;;58.33;2.37;;;;;;;;;;5052888;28;20813;-70
2023/03/25 13:36:27;;;;;;;57.63;2.40;;;;;;;;;;5052721;28;20944;-70
2023/03/25 13:38:57;;;;;;;57.43;2.70;;;;;;;;;;5052818;28;20800;-70
2023/03/25 13:41:26;;;;;;;59.30;3.00;;;;;;;;;;5052985;28;20445;-71
2023/03/25 13:43:58;;;;;;;57.80;2.30;;;;;;;;;;5052696;28;20484;-71
2023/03/25 13:46:28;;;;;;;57.90;2.50;;;;;;;;;;5052527;28;20551;-70
2023/03/25 13:48:57;;;;;;;57.40;2.53;;;;;;;;;;5052033;28;20459;-70
2023/03/25 13:51:25;;;;;;;57.40;2.50;;;;;;;;;;5052520;28;20814;-69
2023/03/25 13:53:54;;;;;;;59.30;2.77;;;;;;;;;;5052652;28;20452;-70
2023/03/25 13:56:35;;;;;;;57.27;2.47;;;;;;;;;;5052319;28;20448;-70
2023/03/25 13:59:12;;;;;;;57.40;2.40;;;;;;;;;;5052057;28;20480;-71
2023/03/25 14:01:52;;;;;;;58.87;2.67;;;;;;;;;;5052201;28;20446;-70
2023/03/25 14:04:39;;;;;;;58.00;2.57;;;;;;;;;;5052380;28;20570;-70
2023/03/25 14:07:23;;;;;;;57.07;2.23;;;;;;;;;;5052241;28;20483;-70
2023/03/25 14:10:01;;;;;;;58.77;2.70;;;;;;;;;;5051766;28;20455;-70
2023/03/25 14:12:30;;;;;;;57.53;2.53;;;;;;;;;;5052434;28;20832;-70
2023/03/25 14:15:00;;;;;;;61.70;2.37;;;;;;;;;;5052026;28;20832;-69
2023/03/25 14:17:28;;;;;;;61.17;3.40;;;;;;;;;;5052112;28;20468;-70
2023/03/25 14:19:58;;;;;;;60.37;3.27;;;;;;;;;;5051699;28;20454;-69
2023/03/25 14:22:27;;;;;;;58.93;2.77;;;;;;;;;;5051884;28;20444;-70
2023/03/25 14:24:55;;;;;;;59.50;2.80;;;;;;;;;;5052039;28;20488;-70
2023/03/25 14:27:25;;;;;;;58.43;2.80;;;;;;;;;;5052195;28;20515;-70
2023/03/25 14:29:57;;;;;;;58.60;3.03;;;;;;;;;;5050834;28;20459;-70
2023/03/25 14:32:25;;;;;;;57.90;2.50;;;;;;;;;;5051974;28;20448;-70